CheckWX is a tool to help pilots better visualize weather data.  It is not intended as a substitute for an official pre-flight weather briefing.

18:49:30 UTC

C09 METAR
Morris Municipal - James R Washburn Field Airport
Morris, Illinois, USA
Current

35 mins ago

KC09 191815Z AUTO 25008KT 10SM SCT031 33/26 A2984 RMK AO2 T03270257
Observed
Jul-19 @ 18:15 UTC
Wind
  • 250° at 8 KTS
Visibility
10 SM
Flight Rules
VFR
Cloud Levels
  • Scattered at 3,100' AGL
Temperature
33°C / 91°F
Dewpoint
26°C / 79°F
Heat Index
42°C / 107°F
Humidity
67%
Altimeter
29.84" Hg
Pressure
1010.52 hPa
Previous

55 mins ago

KC09 191755Z AUTO 22010KT 10SM CLR 33/26 A2985 RMK AO2 T03260259 10326 20265
Observed
Jul-19 @ 17:55 UTC
Wind
  • 220° at 10 KTS
Visibility
10 SM
Flight Rules
VFR
Cloud Levels
  • Clear skies
Temperature
33°C / 91°F
Dewpoint
26°C / 79°F
Heat Index
42°C / 107°F
Humidity
67%
Altimeter
29.85" Hg
Pressure
1010.82 hPa
Previous

1 hour ago

KC09 191735Z AUTO 24008KT 10SM CLR 32/25 A2985 RMK AO2 T03200253
Observed
Jul-19 @ 17:35 UTC
Wind
  • 240° at 8 KTS
Visibility
10 SM
Flight Rules
VFR
Cloud Levels
  • Clear skies
Temperature
32°C / 90°F
Dewpoint
25°C / 77°F
Heat Index
40°C / 104°F
Humidity
67%
Altimeter
29.85" Hg
Pressure
1010.82 hPa